createdAt,value
2023-04-27T00:03:30.213Z,11.54
2023-04-27T00:08:00.057Z,11.50
2023-04-27T00:12:30.052Z,11.47
2023-04-27T00:17:00.090Z,11.44
2023-04-27T00:21:30.061Z,11.42
2023-04-27T00:26:01.337Z,11.36
2023-04-27T00:30:31.142Z,11.31
2023-04-27T00:35:01.083Z,11.24
2023-04-27T00:39:31.145Z,11.12
2023-04-27T00:44:01.319Z,11.05
2023-04-27T00:48:31.156Z,11.01
2023-04-27T00:53:01.170Z,10.99
2023-04-27T00:57:31.110Z,10.95
2023-04-27T01:02:01.218Z,10.90
2023-04-27T01:06:31.145Z,10.84
2023-04-27T01:11:01.222Z,10.80
2023-04-27T01:15:32.516Z,10.80
2023-04-27T01:20:02.232Z,10.74
2023-04-27T01:24:33.555Z,10.66
2023-04-27T01:29:03.139Z,10.58
2023-04-27T01:33:33.110Z,10.48
2023-04-27T01:38:03.148Z,10.46
2023-04-27T01:42:33.215Z,10.39
2023-04-27T01:45:19.371Z,10.39
2023-04-27T01:53:14.270Z,10.35
2023-04-27T02:05:24.456Z,10.17
2023-04-27T02:08:12.050Z,10.14
2023-04-27T02:10:57.965Z,10.14
2023-04-27T02:13:43.860Z,10.14
2023-04-27T02:16:30.449Z,10.12
2023-04-27T02:24:25.462Z,10.06
2023-04-27T02:27:11.288Z,10.07
2023-04-27T02:29:59.541Z,10.08
2023-04-27T02:37:19.170Z,10.03
2023-04-27T02:46:18.167Z,10.07
2023-04-27T02:50:48.158Z,10.03
2023-04-27T02:55:18.165Z,9.95
2023-04-27T02:59:48.207Z,9.89
2023-04-27T03:02:34.328Z,9.91
2023-04-27T03:05:20.695Z,9.93
2023-04-27T03:51:17.255Z,9.56
2023-04-27T03:54:05.646Z,9.60
2023-04-27T03:56:52.487Z,9.61
2023-04-27T04:18:06.294Z,9.57
2023-04-27T04:20:52.546Z,9.55
2023-04-27T04:23:41.249Z,9.61
2023-04-27T04:35:56.458Z,9.50
2023-04-27T04:38:42.664Z,9.46
2023-04-27T04:41:29.312Z,9.54
2023-04-27T04:45:21.966Z,9.48
2023-04-27T04:49:51.302Z,9.49
2023-04-27T04:54:21.272Z,9.48
2023-04-27T04:57:51.009Z,9.52
2023-04-27T05:01:12.503Z,9.56
2023-04-27T05:03:58.644Z,9.64
2023-04-27T05:06:44.978Z,9.58
2023-04-27T05:33:39.463Z,9.71
2023-04-27T05:49:55.410Z,9.87
2023-04-27T05:52:42.331Z,9.92
2023-04-27T05:59:55.707Z,10.03
2023-04-27T06:02:41.652Z,10.11
2023-04-27T06:14:28.836Z,10.38
2023-04-27T06:17:14.863Z,10.49
2023-04-27T06:20:00.640Z,10.55
2023-04-27T06:23:56.575Z,10.60
2023-04-27T06:26:42.628Z,10.70
2023-04-27T06:29:56.282Z,10.73
2023-04-27T06:38:04.755Z,10.84
2023-04-27T06:45:47.245Z,11.04
2023-04-27T06:48:33.107Z,11.06
2023-04-27T06:51:46.773Z,11.10
2023-04-27T06:54:32.543Z,11.11
2023-04-27T06:57:18.297Z,11.15
2023-04-27T07:14:26.352Z,11.28
2023-04-27T07:17:12.454Z,11.32
2023-04-27T07:19:58.119Z,11.38
2023-04-27T07:23:54.417Z,11.37
2023-04-27T07:26:41.552Z,11.47
2023-04-27T07:29:28.412Z,11.52
2023-04-27T07:37:33.661Z,11.61
2023-04-27T07:40:19.647Z,11.61
2023-04-27T07:43:05.647Z,11.60
2023-04-27T07:45:52.077Z,11.61
2023-04-27T07:48:38.160Z,11.61
2023-04-27T07:55:27.249Z,11.75
2023-04-27T07:58:50.954Z,11.75
2023-04-27T08:01:37.815Z,11.79
2023-04-27T08:04:23.889Z,11.86
2023-04-27T08:08:29.722Z,11.87
2023-04-27T08:11:15.809Z,11.98
2023-04-27T08:14:01.829Z,12.06
2023-04-27T08:35:15.266Z,12.50
2023-04-27T08:38:01.434Z,12.60
2023-04-27T08:40:47.484Z,12.68
2023-04-27T08:43:36.770Z,12.71
2023-04-27T08:46:24.114Z,12.83
2023-04-27T08:49:10.613Z,12.89
2023-04-27T08:51:57.043Z,12.94
2023-04-27T08:54:45.251Z,12.98
2023-04-27T08:57:31.340Z,13.08
2023-04-27T09:00:17.927Z,13.10
2023-04-27T09:03:05.478Z,13.16
2023-04-27T09:06:03.788Z,13.26
2023-04-27T09:08:56.674Z,13.30
2023-04-27T09:11:42.530Z,13.42
2023-04-27T09:14:28.525Z,13.48
2023-04-27T09:17:14.376Z,13.54
2023-04-27T09:20:10.344Z,13.64
2023-04-27T09:22:58.369Z,13.64
2023-04-27T09:25:44.727Z,13.68
2023-04-27T09:28:32.512Z,13.69
2023-04-27T09:31:18.880Z,13.71
2023-04-27T09:34:04.658Z,13.75
2023-04-27T09:36:51.251Z,13.76
2023-04-27T09:39:37.339Z,13.79
2023-04-27T09:42:23.338Z,13.82
2023-04-27T09:45:10.133Z,13.85
2023-04-27T09:47:56.386Z,13.97
2023-04-27T09:50:44.510Z,14.02
2023-04-27T09:53:33.638Z,14.09
2023-04-27T09:56:42.456Z,14.16
2023-04-27T09:59:56.812Z,14.25
2023-04-27T10:03:03.834Z,14.34
2023-04-27T10:06:20.652Z,14.39
2023-04-27T10:09:06.853Z,14.45
2023-04-27T10:11:54.826Z,14.50
2023-04-27T10:14:52.415Z,14.55
2023-04-27T10:17:38.610Z,14.56
2023-04-27T10:20:32.427Z,14.64
2023-04-27T10:23:31.522Z,14.71
2023-04-27T10:26:27.988Z,14.78
2023-04-27T10:29:16.528Z,14.88
2023-04-27T10:32:07.143Z,14.94
2023-04-27T10:35:09.552Z,15.01
2023-04-27T10:38:09.026Z,15.04
2023-04-27T10:41:05.781Z,15.11
2023-04-27T10:43:51.892Z,15.17
2023-04-27T10:46:57.418Z,15.25
2023-04-27T10:49:44.809Z,15.34
2023-04-27T10:52:31.843Z,15.40
2023-04-27T10:55:20.330Z,15.42
2023-04-27T10:58:06.152Z,15.46
2023-04-27T11:00:52.710Z,15.48
2023-04-27T11:03:39.105Z,15.53
2023-04-27T11:06:25.214Z,15.58
2023-04-27T11:09:11.506Z,15.62
2023-04-27T11:11:57.573Z,15.69
2023-04-27T11:14:43.573Z,15.74
2023-04-27T11:17:30.296Z,15.79
2023-04-27T11:20:24.797Z,15.85
2023-04-27T11:23:14.820Z,15.89
2023-04-27T11:26:12.616Z,15.91
2023-04-27T11:29:01.080Z,16.00
2023-04-27T11:31:49.437Z,16.10
2023-04-27T11:34:39.233Z,16.19
2023-04-27T11:37:26.665Z,16.29
2023-04-27T11:40:16.020Z,16.35
2023-04-27T11:43:04.797Z,16.44
2023-04-27T11:45:51.540Z,16.46
2023-04-27T11:48:38.676Z,16.53
2023-04-27T11:51:25.139Z,16.60
2023-04-27T11:57:06.164Z,16.82
2023-04-27T11:59:53.488Z,16.88
2023-04-27T12:02:40.645Z,16.94
2023-04-27T12:05:27.319Z,17.07
2023-04-27T12:08:13.504Z,17.22
2023-04-27T12:10:59.580Z,17.47
2023-04-27T12:13:47.229Z,17.82
2023-04-27T12:16:34.067Z,18.16
2023-04-27T12:19:19.928Z,18.50
2023-04-27T12:22:06.122Z,18.91
2023-04-27T12:24:51.881Z,19.27
2023-04-27T12:27:37.972Z,19.65
2023-04-27T12:30:24.091Z,19.97
2023-04-27T12:33:11.219Z,20.23
2023-04-27T12:35:57.612Z,20.18
2023-04-27T12:38:43.852Z,20.03
2023-04-27T12:41:29.876Z,19.82
2023-04-27T12:44:16.809Z,19.66
2023-04-27T12:47:04.125Z,20.85
2023-04-27T12:49:51.111Z,23.12
2023-04-27T12:52:36.805Z,24.37
2023-04-27T12:55:32.853Z,25.25
2023-04-27T12:58:19.949Z,26.02
2023-04-27T13:01:12.384Z,26.58
2023-04-27T13:04:03.088Z,27.01
2023-04-27T13:06:49.178Z,27.34
2023-04-27T13:09:36.265Z,27.62
2023-04-27T13:12:22.522Z,27.91
2023-04-27T13:15:09.449Z,28.08
2023-04-27T13:17:56.431Z,28.21
2023-04-27T13:20:44.180Z,28.37
2023-04-27T13:23:30.288Z,28.50
2023-04-27T13:26:16.583Z,28.67
2023-04-27T13:29:04.703Z,28.74
2023-04-27T13:31:51.609Z,28.91
2023-04-27T13:34:37.504Z,29.00
2023-04-27T13:37:23.687Z,28.91
2023-04-27T13:40:12.825Z,28.74
2023-04-27T13:42:58.561Z,28.67
2023-04-27T13:45:45.464Z,28.64
2023-04-27T13:48:32.051Z,28.58
2023-04-27T13:51:18.269Z,28.54
2023-04-27T13:54:06.327Z,28.64
2023-04-27T13:56:52.208Z,28.75
2023-04-27T13:59:37.827Z,28.86
2023-04-27T14:02:24.849Z,29.03
2023-04-27T14:05:10.654Z,29.24
2023-04-27T14:07:56.972Z,29.42
2023-04-27T14:10:44.401Z,29.64
2023-04-27T14:13:30.514Z,29.91
2023-04-27T14:16:16.656Z,30.27
2023-04-27T14:19:02.973Z,30.59
2023-04-27T14:21:52.230Z,30.84
2023-04-27T14:24:38.178Z,31.11
2023-04-27T14:27:23.944Z,31.33
2023-04-27T14:30:10.480Z,31.54
2023-04-27T14:32:56.309Z,31.67
2023-04-27T14:35:42.657Z,31.86
2023-04-27T14:38:28.675Z,32.04
2023-04-27T14:41:14.738Z,32.18
2023-04-27T14:44:00.580Z,32.41
2023-04-27T14:46:47.138Z,32.62
2023-04-27T14:49:32.940Z,32.79
2023-04-27T14:52:19.127Z,33.08
2023-04-27T14:55:07.365Z,33.23
2023-04-27T14:57:53.213Z,33.28
2023-04-27T15:00:38.946Z,33.48
2023-04-27T15:03:25.508Z,33.53
2023-04-27T15:06:11.561Z,33.58
2023-04-27T15:08:57.697Z,33.48
2023-04-27T15:11:43.823Z,33.41
2023-04-27T15:14:29.886Z,33.25
2023-04-27T15:17:15.769Z,33.10
2023-04-27T15:20:01.859Z,32.80
2023-04-27T15:22:47.805Z,32.49
2023-04-27T15:25:33.721Z,32.14
2023-04-27T15:28:19.912Z,31.72
2023-04-27T15:31:06.487Z,31.33
2023-04-27T15:33:53.889Z,30.96
2023-04-27T15:36:39.989Z,30.65
2023-04-27T15:39:27.288Z,30.39
2023-04-27T15:42:13.444Z,30.17
2023-04-27T15:45:00.771Z,29.99
2023-04-27T15:47:47.107Z,29.81
2023-04-27T15:50:33.316Z,29.66
2023-04-27T15:53:23.591Z,29.44
2023-04-27T15:56:09.988Z,29.27
2023-04-27T15:58:56.007Z,28.95
2023-04-27T16:01:42.067Z,28.80
2023-04-27T16:04:28.432Z,28.51
2023-04-27T16:07:14.218Z,28.22
2023-04-27T16:10:00.372Z,27.90
2023-04-27T16:12:46.155Z,27.60
2023-04-27T16:15:32.277Z,27.29
2023-04-27T16:18:18.288Z,26.95
2023-04-27T16:21:04.866Z,26.52
2023-04-27T16:23:51.206Z,26.14
2023-04-27T16:26:37.422Z,25.68
2023-04-27T16:29:23.145Z,25.35
2023-04-27T16:32:09.034Z,24.97
2023-04-27T16:34:54.873Z,24.61
2023-04-27T16:37:40.938Z,24.25
2023-04-27T16:40:27.092Z,23.91
2023-04-27T16:43:13.166Z,23.49
2023-04-27T16:46:02.355Z,23.11
2023-04-27T16:48:56.041Z,22.76
2023-04-27T16:51:42.068Z,22.40
2023-04-27T16:54:29.336Z,22.04
2023-04-27T16:57:15.140Z,21.66
2023-04-27T17:00:01.819Z,21.36
2023-04-27T17:02:47.992Z,21.01
2023-04-27T17:05:33.892Z,20.71
2023-04-27T17:08:20.044Z,20.38
2023-04-27T17:11:09.799Z,20.08
2023-04-27T17:13:55.899Z,19.72
2023-04-27T17:16:42.318Z,19.53
2023-04-27T17:19:28.790Z,19.25
2023-04-27T17:22:15.128Z,19.05
2023-04-27T17:25:01.333Z,18.77
2023-04-27T17:27:47.653Z,18.50
2023-04-27T17:30:33.831Z,18.30
2023-04-27T17:33:21.188Z,18.12
2023-04-27T17:36:07.255Z,17.94
2023-04-27T17:38:54.069Z,17.74
2023-04-27T17:41:40.573Z,17.51
2023-04-27T17:44:26.318Z,17.38
2023-04-27T17:47:13.229Z,17.18
2023-04-27T17:49:59.344Z,17.03
2023-04-27T17:52:47.533Z,16.92
2023-04-27T17:55:33.713Z,16.79
2023-04-27T17:58:19.837Z,16.62
2023-04-27T18:01:09.085Z,16.50
2023-04-27T18:03:54.886Z,16.38
2023-04-27T18:06:40.567Z,16.26
2023-04-27T18:09:27.223Z,16.19
2023-04-27T18:12:13.446Z,16.08
2023-04-27T18:15:03.845Z,15.95
2023-04-27T18:17:50.916Z,15.89
2023-04-27T18:20:36.896Z,15.84
2023-04-27T18:23:23.310Z,15.72
2023-04-27T18:26:11.516Z,15.67
2023-04-27T18:28:58.740Z,15.58
2023-04-27T18:31:44.792Z,15.49
2023-04-27T18:34:32.392Z,15.40
2023-04-27T18:37:18.082Z,15.33
2023-04-27T18:40:05.969Z,15.25
2023-04-27T18:42:52.337Z,15.18
2023-04-27T18:45:38.577Z,15.13
2023-04-27T18:48:26.004Z,15.04
2023-04-27T18:51:11.961Z,15.02
2023-04-27T18:53:58.052Z,14.97
2023-04-27T18:56:43.970Z,14.88
2023-04-27T18:59:30.042Z,14.83
2023-04-27T19:02:16.485Z,14.78
2023-04-27T19:05:12.183Z,14.64
2023-04-27T19:08:00.184Z,14.64
2023-04-27T19:10:52.548Z,14.53
2023-04-27T19:13:40.953Z,14.51
2023-04-27T19:16:27.024Z,14.44
2023-04-27T19:19:13.578Z,14.41
2023-04-27T19:22:00.601Z,14.37
2023-04-27T19:24:49.978Z,14.33
2023-04-27T19:27:36.610Z,14.31
2023-04-27T19:30:22.583Z,14.29
2023-04-27T19:33:08.832Z,14.26
2023-04-27T19:35:54.924Z,14.24
2023-04-27T19:38:40.837Z,14.20
2023-04-27T19:41:27.086Z,14.17
2023-04-27T19:44:13.282Z,14.13
2023-04-27T19:46:59.347Z,14.10
2023-04-27T19:49:45.699Z,14.05
2023-04-27T19:52:31.568Z,14.04
2023-04-27T19:55:18.774Z,14.00
2023-04-27T19:58:05.076Z,13.97
2023-04-27T20:00:50.914Z,13.96
2023-04-27T20:03:38.027Z,13.87
2023-04-27T20:06:25.213Z,13.87
2023-04-27T20:09:11.504Z,13.81
2023-04-27T20:11:58.111Z,13.79
2023-04-27T20:14:45.502Z,13.77
2023-04-27T20:17:31.594Z,13.71
2023-04-27T20:20:18.398Z,13.70
2023-04-27T20:23:04.275Z,13.67
2023-04-27T20:25:50.427Z,13.66
2023-04-27T20:28:36.726Z,13.61
2023-04-27T20:31:23.489Z,13.57
2023-04-27T20:34:09.785Z,13.55
2023-04-27T20:36:57.965Z,13.51
2023-04-27T20:39:44.530Z,13.48
2023-04-27T20:42:32.643Z,13.43
2023-04-27T20:45:18.914Z,13.41
2023-04-27T20:48:07.446Z,13.40
2023-04-27T20:50:53.621Z,13.35
2023-04-27T20:53:41.921Z,13.35
2023-04-27T20:56:30.695Z,13.32
2023-04-27T20:59:17.338Z,13.29
2023-04-27T21:02:03.557Z,13.28
2023-04-27T21:04:49.371Z,13.24
2023-04-27T21:07:35.556Z,13.22
2023-04-27T21:10:21.443Z,13.19
2023-04-27T21:13:07.550Z,13.15
2023-04-27T21:15:53.359Z,13.09
2023-04-27T21:18:39.972Z,13.04
2023-04-27T21:21:26.586Z,12.99
2023-04-27T21:24:12.251Z,12.94
2023-04-27T21:26:58.399Z,12.89
2023-04-27T21:29:44.260Z,12.85
2023-04-27T21:32:30.380Z,12.76
2023-04-27T21:35:16.242Z,12.78
2023-04-27T21:38:02.116Z,12.70
2023-04-27T21:40:48.178Z,12.65
2023-04-27T21:43:33.909Z,12.67
2023-04-27T21:46:19.714Z,12.60
2023-04-27T21:49:06.020Z,12.56
2023-04-27T21:51:52.326Z,12.50
2023-04-27T21:54:38.368Z,12.46
2023-04-27T21:57:24.090Z,12.40
2023-04-27T22:00:13.881Z,12.36
2023-04-27T22:03:07.064Z,12.32
2023-04-27T22:05:54.166Z,12.28
2023-04-27T22:08:39.918Z,12.22
2023-04-27T22:11:25.975Z,12.15
2023-04-27T22:14:12.200Z,12.13
2023-04-27T22:16:58.627Z,12.08
2023-04-27T22:19:44.410Z,12.04
2023-04-27T22:22:30.181Z,11.97
2023-04-27T22:25:16.144Z,11.92
2023-04-27T22:28:02.347Z,11.74
2023-04-27T22:30:48.248Z,11.76
2023-04-27T22:33:34.197Z,11.69
2023-04-27T22:36:19.915Z,11.61
2023-04-27T22:39:07.246Z,11.55
2023-04-27T22:41:53.383Z,11.51
2023-04-27T22:44:39.170Z,11.52
2023-04-27T22:47:25.639Z,11.48
2023-04-27T22:50:12.608Z,11.41
2023-04-27T22:53:00.719Z,11.41
2023-04-27T22:55:49.559Z,11.28
2023-04-27T22:58:38.568Z,11.32
2023-04-27T23:01:24.740Z,11.19
2023-04-27T23:04:11.066Z,11.23
2023-04-27T23:06:59.595Z,11.14
2023-04-27T23:09:48.535Z,11.13
2023-04-27T23:12:34.642Z,11.11
2023-04-27T23:15:21.767Z,11.06
2023-04-27T23:18:07.808Z,11.03
2023-04-27T23:20:57.019Z,10.97
2023-04-27T23:23:43.040Z,10.93
2023-04-27T23:26:28.812Z,10.87
2023-04-27T23:29:15.299Z,10.83
2023-04-27T23:32:03.768Z,10.78
2023-04-27T23:34:53.892Z,10.71
2023-04-27T23:37:39.812Z,10.67
2023-04-27T23:40:25.882Z,10.53
2023-04-27T23:43:12.028Z,10.46
2023-04-27T23:45:58.217Z,10.41
2023-04-27T23:48:44.047Z,10.37
2023-04-27T23:51:29.900Z,10.27
2023-04-27T23:54:16.465Z,10.21
2023-04-27T23:57:02.524Z,10.14
2023-04-27T23:59:48.606Z,10.07
